CYNR

SPECI CYNR 060814Z AUTO 17007KT 9SM CLR M06/M08 A2973 RMK AO2 SLP087
SPECI
LOCATION
CYNR
DATE - TIME
060814Z
WIND
170 TRUE @ 7 KNOTS
VISIBILITY
9SM
RUNWAY VISUAL RANGE
NOT REPORTED
WEATHER
CLOUDINESS
CLR
TEMP / DEWPOINT
-6 ºC / -8 ºC
ALTIMETER
29.73 in. Hg
RECENT WEATHER
NOT REPORTED
WIND SHEAR
NOT REPORTED
REMARKS
RMK AO2 SLP087
SEA LEVEL PRESSURE: hPa

CYNR

SPECI CYNR 060810Z AUTO 17006KT 9SM -SN CLR M06/M08 A2973 RMK AO2 SLP087
SPECI
LOCATION
CYNR
DATE - TIME
060810Z
WIND
170 TRUE @ 6 KNOTS
VISIBILITY
9SM
RUNWAY VISUAL RANGE
NOT REPORTED
WEATHER
SNOW, SLIGHT
CLOUDINESS
CLR
TEMP / DEWPOINT
-6 ºC / -8 ºC
ALTIMETER
29.73 in. Hg
RECENT WEATHER
NOT REPORTED
WIND SHEAR
NOT REPORTED
REMARKS
RMK AO2 SLP087
SEA LEVEL PRESSURE: hPa

CYNR

METAR CYNR 060800Z AUTO 16005KT 9SM CLR M05/M07 A2973 RMK AO2 SLP088
METAR
LOCATION
CYNR
DATE - TIME
060800Z
WIND
160 TRUE @ 5 KNOTS
VISIBILITY
9SM
RUNWAY VISUAL RANGE
NOT REPORTED
WEATHER
CLOUDINESS
CLR
TEMP / DEWPOINT
-5 ºC / -7 ºC
ALTIMETER
29.73 in. Hg
RECENT WEATHER
NOT REPORTED
WIND SHEAR
NOT REPORTED
REMARKS
RMK AO2 SLP088
SEA LEVEL PRESSURE: hPa

Your time UTC time
 
 
Weather data provided by AXYS Technologies Inc., www.axystechnologies.com
 
Station History